Pagina principală
METAR-TAF:

Aeroporturi :

București-Băneasa, România

Aeroportul Internațional București Băneasa - Aurel Vlaicu

Latitudine: 44-30N, longitudine: 026-08E, elevație: 90 m

Observații meteo curente

Raportul a fost făcut în urmă cu 30 de minute, la 03:00 UTC
Vânt calm
Temperatură 15°C
Umiditate 94%
Presiune 1014 hPa
Vizibilitate de 10 km sau mai mult
nu există nori sub 1.500 m și nici cumulonimbus

METAR: LRBS 010300Z 00000KT CAVOK 15/14 Q1014 NOSIG

Ora: 06:30 (03:30 UTC)

Prognoză

Raportul a fost făcut în urmă cu 4 ore și 30 de minute, la 23:00 UTC
Prognoză valabilă de la 01 ora 00 UTC la 01 ora 24 UTC
Vânt 4 kt din direcții variabile
Vizibilitate de 10 km sau mai mult
nu există nori sub 1.500 m și nici cumulonimbus

TAF: LRBS 312300Z 0100/0124 VRB04KT CAVOK

METAR-TAF

Observații și prognoze meteo pentru peste 4.000 de aeroporturi (rapoarte METAR și TAF).

Stațiile disponibile sunt reprezentate pe hartă prin puncte galbene și roșii.

Țineți indicatorul mouse-ului pe punctul dorit pentru a vedea denumirea stației.

Apoi, faceți clic pentru a vedea observațiile și prognozele meteorologice.

Pentru a schimba harta: Pentru mărire, faceți clic pe butoanele verzi cu cruce neagră; pentru micșorare, pe butonul verde cu o liniuță; pentru hărți învecinate, pe săgețile verzi.


METAR-TAF: